Time;durP1;ratioP1;P1;durP2;ratioP2;P2;SDS_P1;SDS_P2;PMS_P1;PMS_P2;Temp;Humidity;BMP_temperature;BMP_pressure;BME280_temperature;BME280_humidity;BME280_pressure;Samples;Min_cycle;Max_cycle;Signal;HPM_P1;HPM_P2
2021/12/15 00:01:14;;;;;;;23.98;14.45;;;;;;;;;;5068655;28;20039;-60
2021/12/15 00:03:39;;;;;;;25.75;15.30;;;;;;;;;;5071117;28;20074;-61
2021/12/15 00:06:11;;;;;;;22.80;15.43;;;;;;;;;;5072222;28;20119;-61
2021/12/15 00:08:37;;;;;;;21.10;13.52;;;;;;;;;;5070966;28;20024;-61
2021/12/15 00:11:03;;;;;;;20.13;13.60;;;;;;;;;;5054202;28;20047;-61
2021/12/15 00:13:28;;;;;;;20.13;13.63;;;;;;;;;;5072099;28;20036;-60
2021/12/15 00:15:54;;;;;;;24.42;14.88;;;;;;;;;;5054116;28;20499;-60
2021/12/15 00:18:19;;;;;;;19.30;14.00;;;;;;;;;;5072180;28;20031;-60
2021/12/15 00:20:45;;;;;;;17.92;12.68;;;;;;;;;;5071966;28;20519;-61
2021/12/15 00:23:10;;;;;;;18.33;13.10;;;;;;;;;;5072108;28;20028;-60
2021/12/15 00:25:38;;;;;;;17.05;12.25;;;;;;;;;;5072351;28;20072;-61
2021/12/15 00:28:03;;;;;;;19.77;12.57;;;;;;;;;;5053827;28;20109;-62
2021/12/15 00:30:29;;;;;;;20.48;12.93;;;;;;;;;;5070477;28;20037;-61
2021/12/15 00:32:55;;;;;;;19.95;11.50;;;;;;;;;;5087679;28;20491;-61
2021/12/15 00:35:22;;;;;;;17.83;11.88;;;;;;;;;;5087363;28;20040;-60
2021/12/15 00:37:48;;;;;;;20.17;12.02;;;;;;;;;;5070629;28;20122;-61
2021/12/15 00:40:14;;;;;;;20.52;11.82;;;;;;;;;;5087493;28;20120;-60
2021/12/15 00:42:40;;;;;;;18.02;11.52;;;;;;;;;;5087013;28;20502;-61
2021/12/15 00:45:07;;;;;;;17.25;11.07;;;;;;;;;;5071608;28;20043;-61
2021/12/15 00:47:32;;;;;;;16.35;11.60;;;;;;;;;;5053978;28;20427;-61
2021/12/15 00:49:58;;;;;;;14.60;9.90;;;;;;;;;;5071906;28;20086;-61
2021/12/15 00:52:23;;;;;;;16.67;10.75;;;;;;;;;;5071877;28;20023;-61
2021/12/15 00:54:49;;;;;;;16.83;10.75;;;;;;;;;;5071742;28;20045;-61
2021/12/15 00:57:15;;;;;;;14.27;9.95;;;;;;;;;;5071576;28;20502;-62
2021/12/15 00:59:40;;;;;;;15.73;9.82;;;;;;;;;;5070607;28;20075;-61
2021/12/15 01:02:07;;;;;;;14.90;10.00;;;;;;;;;;5075065;28;20043;-60
2021/12/15 01:04:34;;;;;;;13.77;9.27;;;;;;;;;;5073593;28;20476;-61
2021/12/15 01:07:01;;;;;;;11.80;8.57;;;;;;;;;;5073582;28;20138;-61
2021/12/15 01:09:41;;;;;;;13.20;8.95;;;;;;;;;;5073777;28;20038;-61
2021/12/15 01:20:21;;;;;;;12.13;6.90;;;;;;;;;;5056696;28;20519;-60
2021/12/15 01:22:48;;;;;;;9.65;6.70;;;;;;;;;;5090514;28;20138;-60
2021/12/15 01:25:22;;;;;;;12.35;6.95;;;;;;;;;;5073150;28;20028;-61
2021/12/15 01:27:48;;;;;;;8.85;6.40;;;;;;;;;;5074446;28;20487;-61
2021/12/15 01:30:16;;;;;;;10.57;6.57;;;;;;;;;;5073399;28;20032;-61
2021/12/15 01:32:42;;;;;;;10.80;6.10;;;;;;;;;;5090312;28;20036;-61
2021/12/15 01:35:08;;;;;;;11.45;6.05;;;;;;;;;;5073049;28;20130;-61
2021/12/15 01:37:33;;;;;;;10.68;6.20;;;;;;;;;;5073403;28;20044;-61
2021/12/15 01:39:59;;;;;;;12.07;7.43;;;;;;;;;;5056503;28;20024;-61
2021/12/15 01:42:27;;;;;;;12.50;7.30;;;;;;;;;;5074414;28;20040;-61
2021/12/15 01:47:37;;;;;;;11.85;7.07;;;;;;;;;;5056180;28;20139;-61
2021/12/15 01:50:03;;;;;;;8.65;6.57;;;;;;;;;;5072839;28;20033;-60
2021/12/15 01:52:32;;;;;;;11.90;6.10;;;;;;;;;;5056337;28;20036;-61
2021/12/15 01:55:00;;;;;;;11.02;6.97;;;;;;;;;;5073167;28;20025;-62
2021/12/15 01:57:28;;;;;;;11.88;8.57;;;;;;;;;;5074332;28;20086;-61
2021/12/15 01:59:55;;;;;;;12.73;7.40;;;;;;;;;;5056113;28;20509;-61
2021/12/15 02:02:21;;;;;;;11.80;6.95;;;;;;;;;;5073997;28;20062;-61
2021/12/15 02:04:48;;;;;;;13.07;7.07;;;;;;;;;;5072920;28;20033;-61
2021/12/15 02:07:17;;;;;;;10.18;7.10;;;;;;;;;;5089675;28;20040;-61
2021/12/15 02:12:15;;;;;;;;;;;;;;;;;;5072467;28;20106;-61
2021/12/15 02:14:40;;;;;;;13.15;8.00;;;;;;;;;;5073758;28;19995;-62
2021/12/15 02:17:07;;;;;;;11.10;8.13;;;;;;;;;;5072310;28;20074;-60
2021/12/15 02:19:32;;;;;;;13.95;7.25;;;;;;;;;;5056048;28;20082;-60
2021/12/15 02:21:59;;;;;;;11.15;6.70;;;;;;;;;;5056076;28;20533;-61
2021/12/15 02:24:25;;;;;;;10.73;6.85;;;;;;;;;;5072520;28;20135;-60
2021/12/15 02:26:57;;;;;;;10.82;6.80;;;;;;;;;;5055792;28;20182;-61
2021/12/15 02:29:23;;;;;;;13.20;7.10;;;;;;;;;;5089294;28;20048;-61
2021/12/15 02:39:32;;;;;;;14.07;8.07;;;;;;;;;;5073420;28;20119;-61
2021/12/15 02:41:58;;;;;;;10.05;7.05;;;;;;;;;;5071853;28;20476;-63
2021/12/15 02:44:24;;;;;;;13.93;7.25;;;;;;;;;;5072568;28;20044;-61
2021/12/15 02:46:51;;;;;;;9.77;6.30;;;;;;;;;;5088730;28;20036;-61
2021/12/15 02:49:18;;;;;;;11.60;6.50;;;;;;;;;;5072264;28;20381;-61
2021/12/15 02:51:46;;;;;;;9.82;7.07;;;;;;;;;;5073343;28;20039;-62
2021/12/15 02:54:12;;;;;;;12.00;7.13;;;;;;;;;;5073357;28;20033;-61
2021/12/15 02:56:38;;;;;;;11.23;7.57;;;;;;;;;;5071673;28;20013;-60
2021/12/15 02:59:06;;;;;;;9.93;7.25;;;;;;;;;;5071922;28;20058;-61
2021/12/15 03:01:40;;;;;;;14.48;7.00;;;;;;;;;;5089113;28;20081;-61
2021/12/15 03:06:49;;;;;;;12.07;7.47;;;;;;;;;;5071729;28;20458;-61
2021/12/15 03:17:05;;;;;;;15.85;7.13;;;;;;;;;;5071749;28;20539;-62
2021/12/15 03:19:30;;;;;;;11.10;6.70;;;;;;;;;;5088302;28;20120;-60
2021/12/15 03:21:56;;;;;;;10.15;6.50;;;;;;;;;;5071409;28;20393;-60
2021/12/15 03:24:24;;;;;;;10.60;7.13;;;;;;;;;;5053895;28;20044;-61
2021/12/15 03:27:04;;;;;;;11.55;6.75;;;;;;;;;;5071797;28;20055;-61
2021/12/15 03:37:40;;;;;;;9.70;7.05;;;;;;;;;;5072754;28;20037;-61
2021/12/15 03:40:15;;;;;;;10.85;7.28;;;;;;;;;;5072627;28;20052;-62
2021/12/15 03:42:44;;;;;;;11.68;6.72;;;;;;;;;;5087927;28;20483;-61
2021/12/15 03:45:11;;;;;;;8.43;6.05;;;;;;;;;;5088378;28;20111;-61
2021/12/15 03:47:38;;;;;;;9.63;6.63;;;;;;;;;;5054440;28;20068;-60
2021/12/15 03:50:05;;;;;;;13.00;7.07;;;;;;;;;;5071273;28;20036;-61
2021/12/15 03:52:31;;;;;;;10.07;6.53;;;;;;;;;;5054551;28;20399;-62
2021/12/15 03:54:56;;;;;;;12.60;6.22;;;;;;;;;;5072374;28;20103;-62
2021/12/15 03:57:22;;;;;;;9.75;6.50;;;;;;;;;;5072244;28;20048;-62
2021/12/15 03:59:48;;;;;;;11.45;6.65;;;;;;;;;;5088287;28;20042;-60
2021/12/15 04:02:15;;;;;;;9.85;6.72;;;;;;;;;;5070440;28;20487;-61
2021/12/15 04:04:41;;;;;;;14.70;7.40;;;;;;;;;;5067283;28;20095;-62
2021/12/15 04:07:07;;;;;;;12.10;6.22;;;;;;;;;;5033716;28;20050;-62
2021/12/15 04:09:33;;;;;;;9.63;6.60;;;;;;;;;;5068554;28;20047;-66
2021/12/15 04:12:00;;;;;;;12.10;6.68;;;;;;;;;;5050131;28;20044;-62
2021/12/15 04:14:31;;;;;;;11.68;7.55;;;;;;;;;;5034107;28;20028;-61
2021/12/15 04:17:03;;;;;;;13.00;7.47;;;;;;;;;;5067600;28;20539;-62
2021/12/15 04:19:29;;;;;;;12.10;7.18;;;;;;;;;;5033129;28;20429;-63
2021/12/15 04:21:54;;;;;;;13.48;7.55;;;;;;;;;;5066143;28;20555;-63
2021/12/15 04:24:20;;;;;;;12.65;7.20;;;;;;;;;;5066029;28;20111;-62
2021/12/15 04:26:46;;;;;;;10.95;7.55;;;;;;;;;;5047858;28;20049;-62
2021/12/15 04:29:13;;;;;;;10.93;7.28;;;;;;;;;;5066189;28;20036;-62
2021/12/15 04:31:41;;;;;;;13.50;8.00;;;;;;;;;;5048119;28;20089;-62
2021/12/15 04:34:07;;;;;;;12.23;7.47;;;;;;;;;;5048148;28;20024;-62
2021/12/15 04:36:35;;;;;;;12.02;7.55;;;;;;;;;;5069794;28;20036;-61
2021/12/15 04:39:01;;;;;;;10.88;6.93;;;;;;;;;;5037024;28;20035;-67
2021/12/15 04:41:27;;;;;;;11.43;7.13;;;;;;;;;;5051881;28;20952;-64
2021/12/15 04:43:57;;;;;;;10.90;7.18;;;;;;;;;;5051713;28;20484;-64
2021/12/15 04:46:23;;;;;;;;;;;;;;;;;;5052348;28;20044;-63
2021/12/15 04:48:48;;;;;;;13.57;7.73;;;;;;;;;;5070308;28;19915;-61
2021/12/15 04:51:13;;;;;;;14.90;7.15;;;;;;;;;;5069805;28;20040;-63
2021/12/15 04:53:39;;;;;;;11.07;7.15;;;;;;;;;;5069643;28;20028;-62
2021/12/15 04:56:05;;;;;;;18.30;7.45;;;;;;;;;;5052737;28;20047;-61
2021/12/15 04:58:31;;;;;;;13.50;7.88;;;;;;;;;;5053242;28;20115;-67
2021/12/15 05:00:58;;;;;;;10.90;6.90;;;;;;;;;;5071021;28;20154;-61
2021/12/15 05:03:24;;;;;;;12.00;6.97;;;;;;;;;;5036587;28;20503;-66
2021/12/15 05:05:50;;;;;;;13.18;8.77;;;;;;;;;;5071274;28;20105;-63
2021/12/15 05:08:15;;;;;;;16.88;8.48;;;;;;;;;;5052619;28;20484;-63
2021/12/15 05:10:41;;;;;;;16.85;9.38;;;;;;;;;;5047300;28;20028;-62
2021/12/15 05:13:08;;;;;;;18.13;9.32;;;;;;;;;;5051035;28;20108;-61
2021/12/15 05:15:35;;;;;;;13.63;8.68;;;;;;;;;;5033205;28;20033;-62
2021/12/15 05:18:01;;;;;;;16.92;8.93;;;;;;;;;;5033036;28;20037;-64
2021/12/15 05:20:26;;;;;;;14.23;8.68;;;;;;;;;;5050825;28;20111;-61
2021/12/15 05:22:52;;;;;;;15.15;8.70;;;;;;;;;;5050548;28;20035;-62
2021/12/15 05:25:17;;;;;;;11.80;8.32;;;;;;;;;;5016970;28;20552;-61
2021/12/15 05:27:43;;;;;;;12.10;8.13;;;;;;;;;;5051037;28;20094;-62
2021/12/15 05:30:10;;;;;;;14.05;8.35;;;;;;;;;;5033272;28;20596;-61
2021/12/15 05:32:36;;;;;;;12.43;8.00;;;;;;;;;;5031121;28;20047;-63
2021/12/15 05:35:02;;;;;;;13.55;8.25;;;;;;;;;;5048727;28;20457;-62
2021/12/15 05:37:28;;;;;;;13.35;8.70;;;;;;;;;;5048399;28;20094;-67
2021/12/15 05:39:54;;;;;;;12.10;7.65;;;;;;;;;;5031111;28;20072;-61
2021/12/15 05:42:21;;;;;;;14.95;8.50;;;;;;;;;;5031315;28;20051;-62
2021/12/15 05:44:47;;;;;;;16.42;8.25;;;;;;;;;;5048906;28;20159;-63
2021/12/15 05:47:13;;;;;;;15.30;8.50;;;;;;;;;;5030709;28;20041;-61
2021/12/15 05:49:39;;;;;;;11.50;8.07;;;;;;;;;;5032924;28;20037;-62
2021/12/15 05:52:05;;;;;;;11.20;7.55;;;;;;;;;;5032452;28;20064;-61
2021/12/15 05:54:31;;;;;;;14.38;8.73;;;;;;;;;;5032486;28;20036;-61
2021/12/15 05:56:57;;;;;;;13.07;8.48;;;;;;;;;;5050531;28;20033;-61
2021/12/15 05:59:22;;;;;;;13.88;8.70;;;;;;;;;;5032832;28;20040;-60
2021/12/15 06:01:48;;;;;;;12.15;7.90;;;;;;;;;;5050208;28;20037;-61
2021/12/15 06:04:13;;;;;;;13.52;7.93;;;;;;;;;;5050391;28;20062;-60
2021/12/15 06:06:39;;;;;;;15.00;7.65;;;;;;;;;;5049994;28;20032;-62
2021/12/15 06:09:06;;;;;;;16.05;8.55;;;;;;;;;;5048785;28;20103;-61
2021/12/15 06:11:31;;;;;;;16.33;8.68;;;;;;;;;;5032202;28;20025;-61
2021/12/15 06:13:57;;;;;;;15.52;7.78;;;;;;;;;;5050113;28;20078;-64
2021/12/15 06:16:23;;;;;;;19.17;8.18;;;;;;;;;;5050242;28;20037;-62
2021/12/15 06:18:49;;;;;;;12.27;8.27;;;;;;;;;;5050370;28;20037;-62
2021/12/15 06:21:14;;;;;;;15.18;8.93;;;;;;;;;;5049801;28;20033;-62
2021/12/15 06:23:40;;;;;;;16.42;7.68;;;;;;;;;;5031983;28;20039;-61
2021/12/15 06:26:06;;;;;;;14.30;7.95;;;;;;;;;;5032089;28;20127;-61
2021/12/15 06:28:32;;;;;;;11.18;8.13;;;;;;;;;;5032278;28;20033;-62
2021/12/15 06:30:58;;;;;;;16.50;7.93;;;;;;;;;;5031778;28;20449;-65
2021/12/15 06:33:24;;;;;;;11.68;7.70;;;;;;;;;;5050170;28;20104;-62
2021/12/15 06:35:54;;;;;;;15.23;8.77;;;;;;;;;;5049982;28;20063;-62
2021/12/15 06:38:24;;;;;;;14.48;8.38;;;;;;;;;;5031810;28;20033;-62
2021/12/15 06:40:50;;;;;;;13.70;8.90;;;;;;;;;;5031931;28;20036;-62
2021/12/15 06:43:16;;;;;;;17.70;8.32;;;;;;;;;;5031842;28;20488;-62
2021/12/15 06:59:36;;;;;;;12.55;7.63;;;;;;;;;;5054359;28;20032;-60
2021/12/15 07:02:03;;;;;;;19.48;9.15;;;;;;;;;;5049455;28;20108;-61
2021/12/15 07:04:28;;;;;;;14.85;9.18;;;;;;;;;;5049507;28;20563;-61
2021/12/15 07:06:54;;;;;;;33.97;9.15;;;;;;;;;;5049471;28;20124;-61
2021/12/15 07:09:19;;;;;;;48.67;11.23;;;;;;;;;;5049339;28;20056;-61
2021/12/15 07:11:45;;;;;;;25.60;8.95;;;;;;;;;;5049075;28;20047;-61
2021/12/15 07:14:11;;;;;;;16.95;8.52;;;;;;;;;;5049303;28;20027;-61
2021/12/15 07:16:40;;;;;;;14.05;8.10;;;;;;;;;;5049211;28;20468;-61
2021/12/15 07:19:20;;;;;;;15.57;7.47;;;;;;;;;;5031503;28;20037;-61
2021/12/15 07:22:04;;;;;;;11.23;6.65;;;;;;;;;;5047859;28;20081;-61
2021/12/15 07:24:30;;;;;;;11.32;6.47;;;;;;;;;;5047746;28;20032;-62
2021/12/15 07:26:55;;;;;;;11.65;6.22;;;;;;;;;;5049091;28;20043;-65
2021/12/15 07:29:21;;;;;;;10.52;5.95;;;;;;;;;;5049398;28;20357;-59
2021/12/15 07:31:46;;;;;;;9.60;5.75;;;;;;;;;;5047909;28;20174;-61
2021/12/15 07:34:12;;;;;;;9.82;5.82;;;;;;;;;;5049091;28;20025;-61
2021/12/15 07:36:37;;;;;;;10.45;5.45;;;;;;;;;;5048590;28;20020;-60
2021/12/15 07:39:03;;;;;;;16.05;6.50;;;;;;;;;;5056423;28;20139;-63
2021/12/15 07:41:35;;;;;;;11.60;6.60;;;;;;;;;;5068089;28;20040;-62
2021/12/15 07:44:02;;;;;;;21.48;6.55;;;;;;;;;;5068797;28;20035;-61
2021/12/15 07:46:27;;;;;;;11.40;5.50;;;;;;;;;;5034136;28;20038;-64
2021/12/15 07:48:52;;;;;;;12.10;5.63;;;;;;;;;;5069022;28;20040;-61
2021/12/15 07:51:18;;;;;;;17.65;6.15;;;;;;;;;;5064399;28;20473;-61
2021/12/15 07:53:43;;;;;;;19.35;6.47;;;;;;;;;;5033678;28;20031;-61
2021/12/15 07:56:09;;;;;;;20.85;5.90;;;;;;;;;;5068187;28;20119;-64
2021/12/15 07:58:35;;;;;;;14.70;6.35;;;;;;;;;;5068334;28;20024;-63
2021/12/15 08:01:02;;;;;;;21.80;6.40;;;;;;;;;;5050839;28;20385;-62
2021/12/15 08:03:29;;;;;;;15.88;6.05;;;;;;;;;;5034012;28;20095;-61
2021/12/15 08:05:54;;;;;;;15.27;6.38;;;;;;;;;;5067969;28;20080;-63
2021/12/15 08:08:20;;;;;;;16.70;6.32;;;;;;;;;;5067801;28;20067;-65
2021/12/15 08:10:46;;;;;;;11.63;6.28;;;;;;;;;;5049824;28;20048;-60
2021/12/15 08:13:15;;;;;;;15.80;7.28;;;;;;;;;;5050801;28;20106;-61
2021/12/15 08:15:40;;;;;;;15.57;6.72;;;;;;;;;;5033650;28;20029;-62
2021/12/15 08:18:06;;;;;;;14.55;6.63;;;;;;;;;;5061938;28;20086;-61
2021/12/15 08:20:32;;;;;;;11.43;6.68;;;;;;;;;;5057233;28;20017;-62
2021/12/15 08:22:57;;;;;;;14.60;7.28;;;;;;;;;;5054556;28;20032;-61
2021/12/15 08:25:23;;;;;;;13.23;8.10;;;;;;;;;;5048290;28;20036;-62
2021/12/15 08:27:50;;;;;;;13.80;6.93;;;;;;;;;;5050913;28;20032;-64
2021/12/15 08:30:20;;;;;;;11.35;7.50;;;;;;;;;;5066080;28;20033;-62
2021/12/15 08:32:50;;;;;;;10.27;6.60;;;;;;;;;;5059678;28;20035;-62
2021/12/15 08:35:18;;;;;;;9.80;6.32;;;;;;;;;;5062695;28;20048;-64
2021/12/15 08:37:44;;;;;;;13.02;6.32;;;;;;;;;;5051467;28;20368;-64
2021/12/15 08:40:09;;;;;;;9.68;5.82;;;;;;;;;;5066283;28;20434;-60
2021/12/15 08:42:35;;;;;;;9.82;5.30;;;;;;;;;;5059380;28;20045;-61
2021/12/15 08:45:00;;;;;;;13.10;6.25;;;;;;;;;;5056064;28;20050;-60
2021/12/15 08:47:26;;;;;;;9.50;5.93;;;;;;;;;;5064330;28;20041;-63
2021/12/15 08:49:53;;;;;;;13.55;5.57;;;;;;;;;;5053971;28;20070;-63
2021/12/15 08:52:18;;;;;;;10.48;5.68;;;;;;;;;;5062187;28;20039;-62
2021/12/15 08:54:44;;;;;;;11.02;6.30;;;;;;;;;;5059663;28;20020;-63
2021/12/15 08:57:10;;;;;;;10.27;5.80;;;;;;;;;;5065551;28;20507;-63
2021/12/15 08:59:35;;;;;;;8.02;5.30;;;;;;;;;;5067513;28;20040;-63
2021/12/15 09:02:01;;;;;;;12.45;5.57;;;;;;;;;;5051457;28;20037;-63
2021/12/15 09:04:26;;;;;;;10.57;5.60;;;;;;;;;;5065461;28;20032;-64
2021/12/15 09:06:52;;;;;;;11.23;5.82;;;;;;;;;;5061700;28;20550;-63
2021/12/15 09:09:20;;;;;;;12.23;6.25;;;;;;;;;;5047198;28;20033;-63
2021/12/15 09:11:46;;;;;;;9.10;5.70;;;;;;;;;;5057029;28;20033;-64
2021/12/15 09:14:12;;;;;;;11.52;6.07;;;;;;;;;;5051132;28;20037;-64
2021/12/15 09:16:38;;;;;;;9.75;6.25;;;;;;;;;;5047663;28;20475;-65
2021/12/15 09:19:04;;;;;;;8.90;6.75;;;;;;;;;;5046914;28;20047;-64
2021/12/15 09:21:32;;;;;;;11.25;6.45;;;;;;;;;;5059858;28;20107;-63
2021/12/15 09:23:58;;;;;;;10.85;6.78;;;;;;;;;;5068407;28;20127;-64
2021/12/15 09:26:23;;;;;;;9.25;6.75;;;;;;;;;;5067043;28;20123;-63
2021/12/15 09:28:49;;;;;;;8.85;6.18;;;;;;;;;;5054578;28;20104;-63
2021/12/15 09:31:16;;;;;;;9.35;6.43;;;;;;;;;;5061780;28;20032;-63
2021/12/15 09:33:44;;;;;;;11.23;6.00;;;;;;;;;;5058930;28;20378;-63
2021/12/15 09:36:12;;;;;;;10.32;6.10;;;;;;;;;;5046193;28;20032;-62
2021/12/15 09:38:38;;;;;;;10.63;5.70;;;;;;;;;;5069287;28;20499;-63
2021/12/15 09:41:04;;;;;;;6.22;4.43;;;;;;;;;;5067795;28;20036;-63
2021/12/15 09:43:31;;;;;;;6.45;3.45;;;;;;;;;;5067281;28;20139;-63
2021/12/15 09:46:10;;;;;;;8.07;3.78;;;;;;;;;;5067047;28;20033;-62
2021/12/15 10:04:43;;;;;;;5.25;3.17;;;;;;;;;;5067833;28;20029;-62
2021/12/15 10:12:33;;;;;;;5.32;2.75;;;;;;;;;;5068665;28;20120;-62
2021/12/15 10:18:14;;;;;;;6.85;2.63;;;;;;;;;;5068690;28;20045;-62
2021/12/15 10:20:40;;;;;;;6.22;3.25;;;;;;;;;;5067273;28;20119;-62
2021/12/15 10:23:11;;;;;;;5.07;3.20;;;;;;;;;;5033215;28;20028;-64
2021/12/15 10:25:47;;;;;;;5.93;3.40;;;;;;;;;;5068446;28;20042;-63
2021/12/15 10:28:14;;;;;;;7.03;3.40;;;;;;;;;;5067365;28;20025;-63
2021/12/15 10:30:42;;;;;;;8.52;3.50;;;;;;;;;;5067911;28;20032;-63
2021/12/15 10:33:07;;;;;;;6.95;3.15;;;;;;;;;;5065821;28;20032;-62
2021/12/15 10:35:35;;;;;;;4.78;2.70;;;;;;;;;;5067081;28;20052;-62
2021/12/15 10:38:07;;;;;;;4.47;2.85;;;;;;;;;;5066517;28;20031;-63
2021/12/15 10:40:38;;;;;;;4.68;3.20;;;;;;;;;;5066478;28;20091;-63
2021/12/15 10:43:04;;;;;;;4.38;2.70;;;;;;;;;;5067128;28;20040;-63
2021/12/15 10:45:35;;;;;;;4.55;2.80;;;;;;;;;;5049250;28;20119;-63
2021/12/15 10:48:01;;;;;;;4.05;2.00;;;;;;;;;;5067240;28;20111;-63
2021/12/15 10:50:26;;;;;;;6.13;2.60;;;;;;;;;;5067308;28;20043;-63
2021/12/15 10:52:59;;;;;;;4.55;2.30;;;;;;;;;;5067524;28;20476;-63
2021/12/15 10:55:29;;;;;;;5.18;2.83;;;;;;;;;;5068666;28;20037;-64
2021/12/15 10:57:55;;;;;;;3.80;2.50;;;;;;;;;;5068318;28;20051;-62
2021/12/15 11:00:22;;;;;;;3.08;2.08;;;;;;;;;;5068578;28;20498;-63
2021/12/15 11:02:48;;;;;;;4.88;2.38;;;;;;;;;;5067723;28;20619;-62
2021/12/15 11:05:16;;;;;;;5.55;2.33;;;;;;;;;;5068024;28;20040;-64
2021/12/15 11:07:46;;;;;;;5.00;2.72;;;;;;;;;;5050235;28;20495;-64
2021/12/15 11:10:13;;;;;;;5.25;2.65;;;;;;;;;;5050513;28;20068;-62
2021/12/15 11:12:50;;;;;;;6.07;2.75;;;;;;;;;;5067248;28;20021;-62
2021/12/15 11:15:22;;;;;;;3.88;2.38;;;;;;;;;;5068375;28;20506;-63
2021/12/15 11:18:00;;;;;;;5.68;2.40;;;;;;;;;;5068375;28;20020;-62
2021/12/15 11:20:27;;;;;;;4.05;2.22;;;;;;;;;;5067723;28;20411;-63
2021/12/15 11:22:55;;;;;;;5.57;2.15;;;;;;;;;;5067561;28;20505;-63
2021/12/15 11:25:20;;;;;;;2.85;1.90;;;;;;;;;;5067892;28;20032;-65
2021/12/15 11:27:47;;;;;;;3.25;1.65;;;;;;;;;;5067327;28;20044;-63
2021/12/15 11:30:14;;;;;;;4.88;2.10;;;;;;;;;;5067554;28;20093;-63
2021/12/15 11:32:42;;;;;;;3.30;1.40;;;;;;;;;;5067780;28;20391;-67
2021/12/15 11:35:10;;;;;;;3.08;1.55;;;;;;;;;;5065036;28;20475;-61
2021/12/15 11:38:02;;;;;;;2.92;1.60;;;;;;;;;;5067392;28;20487;-61
2021/12/15 11:40:32;;;;;;;4.78;1.77;;;;;;;;;;5044278;28;20052;-61
2021/12/15 11:42:58;;;;;;;3.17;1.42;;;;;;;;;;5067873;28;20091;-62
2021/12/15 11:45:23;;;;;;;2.88;1.33;;;;;;;;;;5066800;28;20068;-61
2021/12/15 11:47:49;;;;;;;2.30;1.40;;;;;;;;;;5067293;28;20020;-61
2021/12/15 11:50:18;;;;;;;3.88;1.30;;;;;;;;;;5067954;28;20384;-61
2021/12/15 11:52:44;;;;;;;;;;;;;;;;;;5068188;28;20047;-61
2021/12/15 11:55:24;;;;;;;3.95;1.30;;;;;;;;;;5067291;28;20376;-62
2021/12/15 11:57:49;;;;;;;5.18;1.40;;;;;;;;;;5067328;28;20039;-61
2021/12/15 12:00:16;;;;;;;5.70;1.40;;;;;;;;;;5065833;28;20024;-62
2021/12/15 12:02:43;;;;;;;3.88;1.50;;;;;;;;;;5067850;28;20033;-62
2021/12/15 12:05:11;;;;;;;4.28;1.50;;;;;;;;;;5067455;28;20028;-61
2021/12/15 12:07:38;;;;;;;3.85;1.40;;;;;;;;;;5067251;28;20040;-62
2021/12/15 12:10:07;;;;;;;3.80;1.80;;;;;;;;;;5066106;28;20480;-62
2021/12/15 12:12:39;;;;;;;6.60;1.67;;;;;;;;;;5067681;28;20044;-62
2021/12/15 12:15:06;;;;;;;3.97;1.50;;;;;;;;;;5067300;28;20313;-61
2021/12/15 12:17:34;;;;;;;4.65;1.55;;;;;;;;;;5065915;28;20032;-62
2021/12/15 12:20:09;;;;;;;4.57;1.30;;;;;;;;;;5067303;28;20040;-62
2021/12/15 12:22:35;;;;;;;4.97;1.40;;;;;;;;;;5067424;28;20028;-62
2021/12/15 12:25:03;;;;;;;2.40;1.20;;;;;;;;;;5066826;28;20031;-62
2021/12/15 12:27:30;;;;;;;2.28;1.20;;;;;;;;;;5066771;28;20029;-62
2021/12/15 12:29:56;;;;;;;3.08;1.35;;;;;;;;;;5067062;28;20033;-61
2021/12/15 12:32:22;;;;;;;3.28;1.15;;;;;;;;;;5067781;28;20035;-61
2021/12/15 12:34:48;;;;;;;2.92;1.40;;;;;;;;;;5066818;28;20037;-62
2021/12/15 12:37:14;;;;;;;4.55;1.77;;;;;;;;;;5067145;28;20078;-62
2021/12/15 12:39:40;;;;;;;2.90;1.20;;;;;;;;;;5066607;28;20044;-61
2021/12/15 12:42:07;;;;;;;3.22;1.30;;;;;;;;;;5066870;28;20465;-61
2021/12/15 12:44:38;;;;;;;2.72;1.30;;;;;;;;;;5066793;28;20032;-62
2021/12/15 12:50:33;;;;;;;3.40;1.40;;;;;;;;;;5066584;28;20036;-62
2021/12/15 13:01:13;;;;;;;2.53;1.33;;;;;;;;;;5070403;28;20046;-61
2021/12/15 13:03:46;;;;;;;4.68;1.90;;;;;;;;;;5070328;28;20028;-61
2021/12/15 13:06:15;;;;;;;4.53;1.25;;;;;;;;;;5070249;28;20043;-61
2021/12/15 13:08:54;;;;;;;4.55;1.45;;;;;;;;;;5070212;28;20055;-61
2021/12/15 13:11:21;;;;;;;1.77;1.20;;;;;;;;;;5069793;28;20062;-60
2021/12/15 13:13:52;;;;;;;2.90;1.48;;;;;;;;;;5069923;28;20106;-61
2021/12/15 13:16:24;;;;;;;4.07;1.40;;;;;;;;;;5069400;28;20033;-60
2021/12/15 13:18:53;;;;;;;7.43;1.75;;;;;;;;;;5068902;28;20111;-62
2021/12/15 13:21:23;;;;;;;2.65;1.30;;;;;;;;;;5069545;28;20525;-60
2021/12/15 13:23:57;;;;;;;2.53;1.13;;;;;;;;;;5069632;28;20024;-62
2021/12/15 13:29:27;;;;;;;2.78;1.60;;;;;;;;;;5069437;28;20033;-62
2021/12/15 13:31:55;;;;;;;4.93;1.40;;;;;;;;;;5069898;28;20497;-62
2021/12/15 13:34:37;;;;;;;4.65;1.15;;;;;;;;;;5051646;28;20068;-62
2021/12/15 13:37:04;;;;;;;4.63;1.40;;;;;;;;;;5069345;28;20060;-61
2021/12/15 13:39:44;;;;;;;4.15;1.42;;;;;;;;;;5069775;28;20579;-62
2021/12/15 13:42:14;;;;;;;2.45;1.27;;;;;;;;;;5069792;28;20603;-62
2021/12/15 13:44:48;;;;;;;3.45;1.30;;;;;;;;;;5051251;28;20498;-62
2021/12/15 13:47:16;;;;;;;3.13;1.30;;;;;;;;;;5069417;28;20044;-62
2021/12/15 13:49:43;;;;;;;3.35;1.10;;;;;;;;;;5068760;28;20099;-62
2021/12/15 13:52:28;;;;;;;3.42;1.30;;;;;;;;;;5069503;28;20024;-62
2021/12/15 13:54:58;;;;;;;2.38;1.27;;;;;;;;;;5069315;28;20024;-62
2021/12/15 13:57:32;;;;;;;4.90;1.40;;;;;;;;;;5069145;28;20051;-63
2021/12/15 14:00:02;;;;;;;3.45;1.23;;;;;;;;;;5069536;28;20037;-62
2021/12/15 14:02:42;;;;;;;3.53;1.35;;;;;;;;;;5069079;28;20024;-64
2021/12/15 14:05:21;;;;;;;2.83;1.20;;;;;;;;;;5051184;28;20078;-61
2021/12/15 14:07:52;;;;;;;3.72;1.33;;;;;;;;;;5068179;28;20438;-62
2021/12/15 14:10:20;;;;;;;3.00;1.20;;;;;;;;;;5068891;28;20391;-62
2021/12/15 14:12:46;;;;;;;4.13;1.40;;;;;;;;;;5050610;28;20499;-62
2021/12/15 14:15:12;;;;;;;5.82;1.30;;;;;;;;;;5084365;28;20028;-62
2021/12/15 14:17:38;;;;;;;2.92;1.25;;;;;;;;;;5068563;28;20493;-62
2021/12/15 14:20:14;;;;;;;4.82;1.10;;;;;;;;;;5050710;28;20024;-62
2021/12/15 14:22:41;;;;;;;2.40;1.20;;;;;;;;;;5068368;28;20036;-63
2021/12/15 14:25:08;;;;;;;2.63;1.10;;;;;;;;;;5068699;28;20048;-62
2021/12/15 14:27:33;;;;;;;3.22;1.40;;;;;;;;;;5068603;28;20063;-62
2021/12/15 14:29:59;;;;;;;3.40;1.40;;;;;;;;;;5068849;28;20039;-62
2021/12/15 14:32:26;;;;;;;3.55;1.70;;;;;;;;;;5068833;28;20090;-62
2021/12/15 14:34:53;;;;;;;3.17;1.65;;;;;;;;;;5067559;28;20025;-62
2021/12/15 14:37:20;;;;;;;4.65;1.42;;;;;;;;;;5068189;28;20083;-62
2021/12/15 14:39:48;;;;;;;4.45;1.50;;;;;;;;;;5068114;28;20020;-62
2021/12/15 14:42:15;;;;;;;3.33;1.33;;;;;;;;;;5068262;28;20028;-62
2021/12/15 14:44:46;;;;;;;4.82;1.40;;;;;;;;;;5068087;28;20029;-62
2021/12/15 14:47:14;;;;;;;3.25;1.40;;;;;;;;;;5067760;28;20542;-62
2021/12/15 14:49:45;;;;;;;3.30;1.30;;;;;;;;;;5066747;28;20031;-62
2021/12/15 14:52:21;;;;;;;4.60;2.05;;;;;;;;;;5066236;28;20043;-62
2021/12/15 14:54:48;;;;;;;4.82;1.50;;;;;;;;;;5082145;28;20064;-62
2021/12/15 14:57:16;;;;;;;3.42;1.50;;;;;;;;;;5066295;28;20103;-61
2021/12/15 14:59:47;;;;;;;2.88;1.60;;;;;;;;;;5066979;28;20040;-62
2021/12/15 15:02:18;;;;;;;4.93;1.58;;;;;;;;;;5067281;28;20036;-62
2021/12/15 15:04:47;;;;;;;2.88;1.20;;;;;;;;;;5068560;28;20115;-61
2021/12/15 15:07:17;;;;;;;5.57;2.17;;;;;;;;;;5068217;28;20479;-62
2021/12/15 15:09:44;;;;;;;5.95;1.77;;;;;;;;;;5068212;28;20036;-62
2021/12/15 15:12:13;;;;;;;4.20;1.80;;;;;;;;;;5068233;28;20086;-62
2021/12/15 15:14:50;;;;;;;5.88;1.60;;;;;;;;;;5067630;28;20055;-61
2021/12/15 15:17:27;;;;;;;5.28;1.70;;;;;;;;;;5050502;28;20046;-62
2021/12/15 15:20:00;;;;;;;7.00;1.70;;;;;;;;;;5067755;28;20405;-61
2021/12/15 15:22:28;;;;;;;6.70;1.80;;;;;;;;;;5067994;28;20032;-61
2021/12/15 15:24:55;;;;;;;5.25;2.80;;;;;;;;;;5067616;28;20037;-60
2021/12/15 15:27:21;;;;;;;8.35;2.25;;;;;;;;;;5067672;28;20395;-61
2021/12/15 15:29:49;;;;;;;8.38;1.90;;;;;;;;;;5068130;28;20028;-61
2021/12/15 15:32:17;;;;;;;4.65;2.13;;;;;;;;;;5067852;28;20031;-61
2021/12/15 15:34:44;;;;;;;8.00;1.85;;;;;;;;;;5067940;28;20067;-62
2021/12/15 15:37:18;;;;;;;4.38;2.00;;;;;;;;;;5067460;28;20086;-61
2021/12/15 15:39:44;;;;;;;4.55;2.10;;;;;;;;;;5067527;28;20063;-61
2021/12/15 15:42:18;;;;;;;6.57;2.60;;;;;;;;;;5067915;28;20016;-61
2021/12/15 15:44:44;;;;;;;5.75;2.78;;;;;;;;;;5067976;28;20392;-61
2021/12/15 15:47:14;;;;;;;8.40;2.70;;;;;;;;;;5067149;28;20020;-61
2021/12/15 15:49:46;;;;;;;8.30;3.08;;;;;;;;;;5067566;28;20586;-61
2021/12/15 15:52:12;;;;;;;9.57;3.40;;;;;;;;;;5067134;28;20055;-61
2021/12/15 15:54:37;;;;;;;21.25;4.35;;;;;;;;;;5067031;28;20036;-62
2021/12/15 15:57:05;;;;;;;13.20;4.55;;;;;;;;;;5065965;28;20032;-61
2021/12/15 15:59:33;;;;;;;12.63;4.50;;;;;;;;;;5067087;28;20028;-60
2021/12/15 16:02:00;;;;;;;14.85;4.72;;;;;;;;;;5066255;28;20033;-62
2021/12/15 16:04:27;;;;;;;15.20;5.30;;;;;;;;;;5066713;28;20032;-61
2021/12/15 16:06:53;;;;;;;14.85;5.25;;;;;;;;;;5065577;28;20527;-62
2021/12/15 16:09:21;;;;;;;11.32;6.10;;;;;;;;;;5048574;28;20063;-62
2021/12/15 16:11:48;;;;;;;13.75;7.32;;;;;;;;;;5067199;28;20186;-61